sensor_id;sensor_type;location;lat;lon;timestamp;temperature;humidity
24011;DHT22;12217;50.792;4.372;2022-10-15T00:01:45;15.80;99.90
24011;DHT22;12217;50.792;4.372;2022-10-15T00:04:11;15.80;99.90
24011;DHT22;12217;50.792;4.372;2022-10-15T00:06:36;15.70;99.90
24011;DHT22;12217;50.792;4.372;2022-10-15T00:09:02;15.40;99.90
24011;DHT22;12217;50.792;4.372;2022-10-15T00:11:28;15.30;99.90
24011;DHT22;12217;50.792;4.372;2022-10-15T00:13:57;15.20;99.90
24011;DHT22;12217;50.792;4.372;2022-10-15T00:16:24;15.30;99.90
24011;DHT22;12217;50.792;4.372;2022-10-15T00:18:51;15.20;99.90
24011;DHT22;12217;50.792;4.372;2022-10-15T00:21:19;15.10;99.90
24011;DHT22;12217;50.792;4.372;2022-10-15T00:23:46;15.10;99.90
24011;DHT22;12217;50.792;4.372;2022-10-15T00:26:18;15.10;99.90
24011;DHT22;12217;50.792;4.372;2022-10-15T00:28:45;15.30;99.90
24011;DHT22;12217;50.792;4.372;2022-10-15T00:31:13;15.20;99.90
24011;DHT22;12217;50.792;4.372;2022-10-15T00:33:39;15.20;99.90
24011;DHT22;12217;50.792;4.372;2022-10-15T00:36:12;15.00;99.90
24011;DHT22;12217;50.792;4.372;2022-10-15T00:38:38;14.90;99.90
24011;DHT22;12217;50.792;4.372;2022-10-15T00:41:06;15.00;99.90
24011;DHT22;12217;50.792;4.372;2022-10-15T00:43:43;15.00;99.90
24011;DHT22;12217;50.792;4.372;2022-10-15T00:46:26;15.10;99.90
24011;DHT22;12217;50.792;4.372;2022-10-15T00:49:11;15.20;99.90
24011;DHT22;12217;50.792;4.372;2022-10-15T00:51:43;15.30;99.90
24011;DHT22;12217;50.792;4.372;2022-10-15T00:54:09;15.40;99.90
24011;DHT22;12217;50.792;4.372;2022-10-15T00:56:36;15.40;99.90
24011;DHT22;12217;50.792;4.372;2022-10-15T00:59:04;15.30;99.90
24011;DHT22;12217;50.792;4.372;2022-10-15T01:01:30;15.40;99.90
24011;DHT22;12217;50.792;4.372;2022-10-15T01:03:56;15.40;99.90
24011;DHT22;12217;50.792;4.372;2022-10-15T01:06:23;15.30;99.90
24011;DHT22;12217;50.792;4.372;2022-10-15T01:08:49;15.30;99.90
24011;DHT22;12217;50.792;4.372;2022-10-15T01:16:42;15.20;99.90
24011;DHT22;12217;50.792;4.372;2022-10-15T01:24:58;15.40;99.90
24011;DHT22;12217;50.792;4.372;2022-10-15T01:27:38;15.20;99.90
24011;DHT22;12217;50.792;4.372;2022-10-15T01:32:59;15.20;99.90
24011;DHT22;12217;50.792;4.372;2022-10-15T01:35:36;15.00;99.90
24011;DHT22;12217;50.792;4.372;2022-10-15T01:40:43;15.00;99.90
24011;DHT22;12217;50.792;4.372;2022-10-15T01:43:15;15.00;99.90
24011;DHT22;12217;50.792;4.372;2022-10-15T01:45:55;15.00;99.90
24011;DHT22;12217;50.792;4.372;2022-10-15T01:48:25;15.00;99.90
24011;DHT22;12217;50.792;4.372;2022-10-15T01:50:54;15.10;99.90
24011;DHT22;12217;50.792;4.372;2022-10-15T01:53:23;15.20;99.90
24011;DHT22;12217;50.792;4.372;2022-10-15T01:55:53;15.10;99.90
24011;DHT22;12217;50.792;4.372;2022-10-15T01:58:22;15.30;99.90
24011;DHT22;12217;50.792;4.372;2022-10-15T02:00:50;15.20;99.90
24011;DHT22;12217;50.792;4.372;2022-10-15T02:03:16;15.10;99.90
24011;DHT22;12217;50.792;4.372;2022-10-15T02:05:54;15.20;99.90
24011;DHT22;12217;50.792;4.372;2022-10-15T02:11:11;15.30;99.90
24011;DHT22;12217;50.792;4.372;2022-10-15T02:13:51;15.20;99.90
24011;DHT22;12217;50.792;4.372;2022-10-15T02:19:06;15.10;99.90
24011;DHT22;12217;50.792;4.372;2022-10-15T02:21:45;15.10;99.90
24011;DHT22;12217;50.792;4.372;2022-10-15T02:24:23;15.10;99.90
24011;DHT22;12217;50.792;4.372;2022-10-15T02:26:51;15.10;99.90
24011;DHT22;12217;50.792;4.372;2022-10-15T02:29:21;15.10;99.90
24011;DHT22;12217;50.792;4.372;2022-10-15T02:31:48;15.10;99.90
24011;DHT22;12217;50.792;4.372;2022-10-15T02:34:18;15.10;99.90
24011;DHT22;12217;50.792;4.372;2022-10-15T02:36:45;15.10;99.90
24011;DHT22;12217;50.792;4.372;2022-10-15T02:39:14;15.00;99.90
24011;DHT22;12217;50.792;4.372;2022-10-15T02:41:42;15.00;99.90
24011;DHT22;12217;50.792;4.372;2022-10-15T02:44:08;14.90;99.90
24011;DHT22;12217;50.792;4.372;2022-10-15T02:46:33;14.80;99.90
24011;DHT22;12217;50.792;4.372;2022-10-15T02:48:59;14.90;99.90
24011;DHT22;12217;50.792;4.372;2022-10-15T02:51:25;15.00;99.90
24011;DHT22;12217;50.792;4.372;2022-10-15T02:53:50;15.00;99.90
24011;DHT22;12217;50.792;4.372;2022-10-15T02:56:16;15.00;99.90
24011;DHT22;12217;50.792;4.372;2022-10-15T02:58:41;15.10;99.90
24011;DHT22;12217;50.792;4.372;2022-10-15T03:01:07;15.00;99.90
24011;DHT22;12217;50.792;4.372;2022-10-15T03:03:33;15.00;99.90
24011;DHT22;12217;50.792;4.372;2022-10-15T03:05:58;15.00;99.90
24011;DHT22;12217;50.792;4.372;2022-10-15T03:08:24;14.90;99.90
24011;DHT22;12217;50.792;4.372;2022-10-15T03:10:49;14.80;99.90
24011;DHT22;12217;50.792;4.372;2022-10-15T03:13:15;15.00;99.90
24011;DHT22;12217;50.792;4.372;2022-10-15T03:15:41;15.00;99.90
24011;DHT22;12217;50.792;4.372;2022-10-15T03:18:07;15.00;99.90
24011;DHT22;12217;50.792;4.372;2022-10-15T03:20:32;14.90;99.90
24011;DHT22;12217;50.792;4.372;2022-10-15T03:22:58;15.00;99.90
24011;DHT22;12217;50.792;4.372;2022-10-15T03:25:23;14.90;99.90
24011;DHT22;12217;50.792;4.372;2022-10-15T03:27:49;15.00;99.90
24011;DHT22;12217;50.792;4.372;2022-10-15T03:30:18;15.10;99.90
24011;DHT22;12217;50.792;4.372;2022-10-15T03:32:43;15.20;99.90
24011;DHT22;12217;50.792;4.372;2022-10-15T03:35:09;15.10;99.90
24011;DHT22;12217;50.792;4.372;2022-10-15T03:37:35;15.20;99.90
24011;DHT22;12217;50.792;4.372;2022-10-15T03:40:00;15.10;99.90
24011;DHT22;12217;50.792;4.372;2022-10-15T03:42:26;15.10;99.90
24011;DHT22;12217;50.792;4.372;2022-10-15T03:44:51;15.00;99.90
24011;DHT22;12217;50.792;4.372;2022-10-15T03:47:17;14.80;99.90
24011;DHT22;12217;50.792;4.372;2022-10-15T03:49:43;14.80;99.90
24011;DHT22;12217;50.792;4.372;2022-10-15T03:52:09;14.80;99.90
24011;DHT22;12217;50.792;4.372;2022-10-15T03:54:34;14.90;99.90
24011;DHT22;12217;50.792;4.372;2022-10-15T03:57:00;14.90;99.90
24011;DHT22;12217;50.792;4.372;2022-10-15T03:59:26;14.90;99.90
24011;DHT22;12217;50.792;4.372;2022-10-15T04:01:51;14.80;99.90
24011;DHT22;12217;50.792;4.372;2022-10-15T04:04:17;14.80;99.90
24011;DHT22;12217;50.792;4.372;2022-10-15T04:06:42;14.70;99.90
24011;DHT22;12217;50.792;4.372;2022-10-15T04:09:12;14.80;99.90
24011;DHT22;12217;50.792;4.372;2022-10-15T04:11:38;14.70;99.90
24011;DHT22;12217;50.792;4.372;2022-10-15T04:14:04;14.60;99.90
24011;DHT22;12217;50.792;4.372;2022-10-15T04:16:30;14.60;99.90
24011;DHT22;12217;50.792;4.372;2022-10-15T04:18:56;14.60;99.90
24011;DHT22;12217;50.792;4.372;2022-10-15T04:21:23;14.60;99.90
24011;DHT22;12217;50.792;4.372;2022-10-15T04:23:49;14.60;99.90
24011;DHT22;12217;50.792;4.372;2022-10-15T04:26:15;14.50;99.90
24011;DHT22;12217;50.792;4.372;2022-10-15T04:28:40;14.40;99.90
24011;DHT22;12217;50.792;4.372;2022-10-15T04:31:06;14.50;99.90
24011;DHT22;12217;50.792;4.372;2022-10-15T04:33:32;14.50;99.90
24011;DHT22;12217;50.792;4.372;2022-10-15T04:36:10;14.40;99.90
24011;DHT22;12217;50.792;4.372;2022-10-15T04:38:36;14.50;99.90
24011;DHT22;12217;50.792;4.372;2022-10-15T04:41:07;14.40;99.90
24011;DHT22;12217;50.792;4.372;2022-10-15T04:43:34;14.50;99.90
24011;DHT22;12217;50.792;4.372;2022-10-15T04:46:01;14.40;99.90
24011;DHT22;12217;50.792;4.372;2022-10-15T04:48:29;14.40;99.90
24011;DHT22;12217;50.792;4.372;2022-10-15T04:51:05;14.40;99.90
24011;DHT22;12217;50.792;4.372;2022-10-15T04:53:31;14.30;99.90
24011;DHT22;12217;50.792;4.372;2022-10-15T04:56:02;14.30;99.90
24011;DHT22;12217;50.792;4.372;2022-10-15T04:58:29;14.30;99.90
24011;DHT22;12217;50.792;4.372;2022-10-15T05:00:59;14.30;99.90
24011;DHT22;12217;50.792;4.372;2022-10-15T05:03:24;14.40;99.90
24011;DHT22;12217;50.792;4.372;2022-10-15T05:05:50;14.40;99.90
24011;DHT22;12217;50.792;4.372;2022-10-15T05:08:15;14.40;99.90
24011;DHT22;12217;50.792;4.372;2022-10-15T05:10:41;14.20;99.90
24011;DHT22;12217;50.792;4.372;2022-10-15T05:13:06;14.30;99.90
24011;DHT22;12217;50.792;4.372;2022-10-15T05:15:32;14.20;99.90
24011;DHT22;12217;50.792;4.372;2022-10-15T05:17:58;14.30;99.90
24011;DHT22;12217;50.792;4.372;2022-10-15T05:20:23;14.20;99.90
24011;DHT22;12217;50.792;4.372;2022-10-15T05:22:49;14.30;99.90
24011;DHT22;12217;50.792;4.372;2022-10-15T05:25:14;14.30;99.90
24011;DHT22;12217;50.792;4.372;2022-10-15T05:27:40;14.20;99.90
24011;DHT22;12217;50.792;4.372;2022-10-15T05:30:06;14.10;99.90
24011;DHT22;12217;50.792;4.372;2022-10-15T05:32:32;14.20;99.90
24011;DHT22;12217;50.792;4.372;2022-10-15T05:34:57;14.30;99.90
24011;DHT22;12217;50.792;4.372;2022-10-15T05:37:23;14.30;99.90
24011;DHT22;12217;50.792;4.372;2022-10-15T05:39:49;14.40;99.90
24011;DHT22;12217;50.792;4.372;2022-10-15T05:42:14;14.40;99.90
24011;DHT22;12217;50.792;4.372;2022-10-15T05:44:40;14.40;99.90
24011;DHT22;12217;50.792;4.372;2022-10-15T05:47:05;14.50;99.90
24011;DHT22;12217;50.792;4.372;2022-10-15T05:49:36;14.60;99.90
24011;DHT22;12217;50.792;4.372;2022-10-15T05:52:02;14.60;99.90
24011;DHT22;12217;50.792;4.372;2022-10-15T05:54:27;14.60;99.90
24011;DHT22;12217;50.792;4.372;2022-10-15T05:56:53;14.50;99.90
24011;DHT22;12217;50.792;4.372;2022-10-15T05:59:18;14.60;99.90
24011;DHT22;12217;50.792;4.372;2022-10-15T06:01:44;14.60;99.90
24011;DHT22;12217;50.792;4.372;2022-10-15T06:04:10;14.50;99.90
24011;DHT22;12217;50.792;4.372;2022-10-15T06:06:35;14.50;99.90
24011;DHT22;12217;50.792;4.372;2022-10-15T06:09:01;14.50;99.90
24011;DHT22;12217;50.792;4.372;2022-10-15T06:11:27;14.40;99.90
24011;DHT22;12217;50.792;4.372;2022-10-15T06:13:53;14.40;99.90
24011;DHT22;12217;50.792;4.372;2022-10-15T06:16:19;14.40;99.90
24011;DHT22;12217;50.792;4.372;2022-10-15T06:18:44;14.40;99.90
24011;DHT22;12217;50.792;4.372;2022-10-15T06:21:10;14.50;99.90
24011;DHT22;12217;50.792;4.372;2022-10-15T06:23:36;14.60;99.90
24011;DHT22;12217;50.792;4.372;2022-10-15T06:26:03;14.50;99.90
24011;DHT22;12217;50.792;4.372;2022-10-15T06:28:29;14.50;99.90
24011;DHT22;12217;50.792;4.372;2022-10-15T06:30:57;14.60;99.90
24011;DHT22;12217;50.792;4.372;2022-10-15T06:33:24;14.60;99.90
24011;DHT22;12217;50.792;4.372;2022-10-15T06:35:49;14.50;99.90
24011;DHT22;12217;50.792;4.372;2022-10-15T06:38:15;14.50;99.90
24011;DHT22;12217;50.792;4.372;2022-10-15T06:40:41;14.50;99.90
24011;DHT22;12217;50.792;4.372;2022-10-15T06:43:08;14.70;99.90
24011;DHT22;12217;50.792;4.372;2022-10-15T06:45:37;14.70;99.90
24011;DHT22;12217;50.792;4.372;2022-10-15T06:48:04;14.60;99.90
24011;DHT22;12217;50.792;4.372;2022-10-15T06:50:34;14.60;99.90
24011;DHT22;12217;50.792;4.372;2022-10-15T06:53:01;14.60;99.90
24011;DHT22;12217;50.792;4.372;2022-10-15T06:55:27;14.70;99.90
24011;DHT22;12217;50.792;4.372;2022-10-15T06:57:56;14.70;99.90
24011;DHT22;12217;50.792;4.372;2022-10-15T07:00:23;14.80;99.90
24011;DHT22;12217;50.792;4.372;2022-10-15T07:02:49;14.70;99.90
24011;DHT22;12217;50.792;4.372;2022-10-15T07:05:15;14.60;99.90
24011;DHT22;12217;50.792;4.372;2022-10-15T07:07:41;14.60;99.90
24011;DHT22;12217;50.792;4.372;2022-10-15T07:10:07;14.70;99.90
24011;DHT22;12217;50.792;4.372;2022-10-15T07:12:34;14.80;99.90
24011;DHT22;12217;50.792;4.372;2022-10-15T07:14:59;14.80;99.90
24011;DHT22;12217;50.792;4.372;2022-10-15T07:17:25;14.80;99.90
24011;DHT22;12217;50.792;4.372;2022-10-15T07:19:51;14.60;99.90
24011;DHT22;12217;50.792;4.372;2022-10-15T07:22:16;14.70;99.90
24011;DHT22;12217;50.792;4.372;2022-10-15T07:24:42;14.60;99.90
24011;DHT22;12217;50.792;4.372;2022-10-15T07:27:08;14.70;99.90
24011;DHT22;12217;50.792;4.372;2022-10-15T07:29:34;14.80;99.90
24011;DHT22;12217;50.792;4.372;2022-10-15T07:32:00;14.80;99.90
24011;DHT22;12217;50.792;4.372;2022-10-15T07:34:26;14.90;99.90
24011;DHT22;12217;50.792;4.372;2022-10-15T07:36:51;14.90;99.90
24011;DHT22;12217;50.792;4.372;2022-10-15T07:39:17;14.80;99.90
24011;DHT22;12217;50.792;4.372;2022-10-15T07:41:44;14.80;99.90
24011;DHT22;12217;50.792;4.372;2022-10-15T07:44:10;14.90;99.90
24011;DHT22;12217;50.792;4.372;2022-10-15T07:46:36;14.90;99.90
24011;DHT22;12217;50.792;4.372;2022-10-15T07:49:02;14.90;99.90
24011;DHT22;12217;50.792;4.372;2022-10-15T07:51:28;14.80;99.90
24011;DHT22;12217;50.792;4.372;2022-10-15T07:53:54;15.00;99.90
24011;DHT22;12217;50.792;4.372;2022-10-15T07:56:20;14.90;99.90
24011;DHT22;12217;50.792;4.372;2022-10-15T07:58:46;14.90;99.90
24011;DHT22;12217;50.792;4.372;2022-10-15T08:01:17;15.00;99.90
24011;DHT22;12217;50.792;4.372;2022-10-15T08:03:43;14.80;99.90
24011;DHT22;12217;50.792;4.372;2022-10-15T08:06:08;14.90;99.90
24011;DHT22;12217;50.792;4.372;2022-10-15T08:08:35;14.80;99.90
24011;DHT22;12217;50.792;4.372;2022-10-15T08:11:08;14.80;99.90
24011;DHT22;12217;50.792;4.372;2022-10-15T08:13:34;14.80;99.90
24011;DHT22;12217;50.792;4.372;2022-10-15T08:16:01;14.90;99.90
24011;DHT22;12217;50.792;4.372;2022-10-15T08:18:27;15.00;99.90
24011;DHT22;12217;50.792;4.372;2022-10-15T08:20:53;15.10;99.90
24011;DHT22;12217;50.792;4.372;2022-10-15T08:23:18;15.20;99.90
24011;DHT22;12217;50.792;4.372;2022-10-15T08:25:44;15.20;99.90
24011;DHT22;12217;50.792;4.372;2022-10-15T08:28:10;15.20;99.90
24011;DHT22;12217;50.792;4.372;2022-10-15T08:30:36;15.10;99.90
24011;DHT22;12217;50.792;4.372;2022-10-15T08:33:02;15.10;99.90
24011;DHT22;12217;50.792;4.372;2022-10-15T08:35:27;15.10;99.90
24011;DHT22;12217;50.792;4.372;2022-10-15T08:37:54;15.10;99.90
24011;DHT22;12217;50.792;4.372;2022-10-15T08:40:20;15.20;99.90
24011;DHT22;12217;50.792;4.372;2022-10-15T08:42:46;15.20;99.90
24011;DHT22;12217;50.792;4.372;2022-10-15T08:45:16;15.30;99.90
24011;DHT22;12217;50.792;4.372;2022-10-15T08:47:51;15.40;99.90
24011;DHT22;12217;50.792;4.372;2022-10-15T08:53:01;15.40;99.90
24011;DHT22;12217;50.792;4.372;2022-10-15T08:55:33;15.40;99.90
24011;DHT22;12217;50.792;4.372;2022-10-15T08:58:10;15.50;99.90
24011;DHT22;12217;50.792;4.372;2022-10-15T09:00:49;15.60;99.90
24011;DHT22;12217;50.792;4.372;2022-10-15T09:04:00;15.60;99.90
24011;DHT22;12217;50.792;4.372;2022-10-15T09:06:21;15.60;99.90
24011;DHT22;12217;50.792;4.372;2022-10-15T09:14:06;15.70;99.90
24011;DHT22;12217;50.792;4.372;2022-10-15T09:16:36;15.90;99.90
24011;DHT22;12217;50.792;4.372;2022-10-15T09:19:09;15.90;99.90
24011;DHT22;12217;50.792;4.372;2022-10-15T09:21:36;16.00;99.90
24011;DHT22;12217;50.792;4.372;2022-10-15T09:24:03;16.10;99.90
24011;DHT22;12217;50.792;4.372;2022-10-15T09:26:37;16.20;99.90
24011;DHT22;12217;50.792;4.372;2022-10-15T09:31:43;16.20;99.90
24011;DHT22;12217;50.792;4.372;2022-10-15T09:37:07;16.20;99.90
24011;DHT22;12217;50.792;4.372;2022-10-15T09:40:25;16.30;99.90
24011;DHT22;12217;50.792;4.372;2022-10-15T09:42:56;16.40;99.90
24011;DHT22;12217;50.792;4.372;2022-10-15T09:45:22;16.40;99.90
24011;DHT22;12217;50.792;4.372;2022-10-15T09:47:48;16.50;99.90
24011;DHT22;12217;50.792;4.372;2022-10-15T09:50:15;16.50;99.90
24011;DHT22;12217;50.792;4.372;2022-10-15T09:53:04;16.40;99.90
24011;DHT22;12217;50.792;4.372;2022-10-15T09:56:15;16.50;99.90
24011;DHT22;12217;50.792;4.372;2022-10-15T09:58:54;16.60;99.90
24011;DHT22;12217;50.792;4.372;2022-10-15T10:01:23;16.60;99.90
24011;DHT22;12217;50.792;4.372;2022-10-15T10:04:18;16.60;99.90
24011;DHT22;12217;50.792;4.372;2022-10-15T10:06:52;16.60;99.90
24011;DHT22;12217;50.792;4.372;2022-10-15T10:10:20;16.60;99.90
24011;DHT22;12217;50.792;4.372;2022-10-15T10:12:21;16.60;99.90
24011;DHT22;12217;50.792;4.372;2022-10-15T10:14:59;16.70;99.90
24011;DHT22;12217;50.792;4.372;2022-10-15T10:17:27;16.80;99.90
24011;DHT22;12217;50.792;4.372;2022-10-15T10:22:29;16.90;99.90
24011;DHT22;12217;50.792;4.372;2022-10-15T10:24:55;16.90;99.90
24011;DHT22;12217;50.792;4.372;2022-10-15T10:27:27;17.00;99.90
24011;DHT22;12217;50.792;4.372;2022-10-15T10:29:57;17.10;99.90
24011;DHT22;12217;50.792;4.372;2022-10-15T10:32:32;17.30;99.90
24011;DHT22;12217;50.792;4.372;2022-10-15T10:35:00;17.20;99.90
24011;DHT22;12217;50.792;4.372;2022-10-15T10:37:27;17.20;99.90
24011;DHT22;12217;50.792;4.372;2022-10-15T10:39:56;17.10;99.90
24011;DHT22;12217;50.792;4.372;2022-10-15T10:42:30;17.20;99.90
24011;DHT22;12217;50.792;4.372;2022-10-15T10:45:14;17.30;99.90
24011;DHT22;12217;50.792;4.372;2022-10-15T10:47:40;17.20;99.90
24011;DHT22;12217;50.792;4.372;2022-10-15T10:50:26;17.30;99.90
24011;DHT22;12217;50.792;4.372;2022-10-15T10:52:51;17.40;99.90
24011;DHT22;12217;50.792;4.372;2022-10-15T10:55:20;17.40;99.90
24011;DHT22;12217;50.792;4.372;2022-10-15T10:57:56;17.50;99.90
24011;DHT22;12217;50.792;4.372;2022-10-15T11:00:41;17.40;99.90
24011;DHT22;12217;50.792;4.372;2022-10-15T11:23:22;17.30;99.90
24011;DHT22;12217;50.792;4.372;2022-10-15T11:40:20;17.40;99.90
24011;DHT22;12217;50.792;4.372;2022-10-15T11:42:58;17.50;99.90
24011;DHT22;12217;50.792;4.372;2022-10-15T11:45:33;17.30;99.90
24011;DHT22;12217;50.792;4.372;2022-10-15T11:48:17;17.30;99.90
24011;DHT22;12217;50.792;4.372;2022-10-15T11:56:20;17.50;99.90
24011;DHT22;12217;50.792;4.372;2022-10-15T12:04:05;17.30;99.90
24011;DHT22;12217;50.792;4.372;2022-10-15T12:06:36;17.30;99.90
24011;DHT22;12217;50.792;4.372;2022-10-15T12:09:05;17.40;99.90
24011;DHT22;12217;50.792;4.372;2022-10-15T12:11:45;17.20;99.90
24011;DHT22;12217;50.792;4.372;2022-10-15T12:14:23;17.20;99.90
24011;DHT22;12217;50.792;4.372;2022-10-15T12:17:14;17.30;99.90
24011;DHT22;12217;50.792;4.372;2022-10-15T12:19:54;17.40;99.90
24011;DHT22;12217;50.792;4.372;2022-10-15T12:28:15;17.40;99.90
24011;DHT22;12217;50.792;4.372;2022-10-15T12:30:42;17.60;99.90
24011;DHT22;12217;50.792;4.372;2022-10-15T12:33:28;17.60;99.90
24011;DHT22;12217;50.792;4.372;2022-10-15T12:35:58;17.70;99.90
24011;DHT22;12217;50.792;4.372;2022-10-15T12:38:30;17.80;99.90
24011;DHT22;12217;50.792;4.372;2022-10-15T12:41:02;17.70;99.90
24011;DHT22;12217;50.792;4.372;2022-10-15T12:43:30;17.90;99.90
24011;DHT22;12217;50.792;4.372;2022-10-15T12:46:02;18.30;99.90
24011;DHT22;12217;50.792;4.372;2022-10-15T12:53:41;20.20;99.90
24011;DHT22;12217;50.792;4.372;2022-10-15T12:58:37;20.60;99.90
24011;DHT22;12217;50.792;4.372;2022-10-15T13:01:29;20.30;99.90
24011;DHT22;12217;50.792;4.372;2022-10-15T13:04:14;20.70;99.90
24011;DHT22;12217;50.792;4.372;2022-10-15T13:06:39;21.20;99.90
24011;DHT22;12217;50.792;4.372;2022-10-15T13:16:37;21.60;99.90
24011;DHT22;12217;50.792;4.372;2022-10-15T13:19:06;21.20;99.90
24011;DHT22;12217;50.792;4.372;2022-10-15T13:21:51;21.10;99.90
24011;DHT22;12217;50.792;4.372;2022-10-15T13:24:23;21.50;99.90
24011;DHT22;12217;50.792;4.372;2022-10-15T13:26:50;22.60;99.90
24011;DHT22;12217;50.792;4.372;2022-10-15T13:29:18;23.30;99.90
24011;DHT22;12217;50.792;4.372;2022-10-15T13:31:44;23.70;99.90
24011;DHT22;12217;50.792;4.372;2022-10-15T13:34:28;24.00;99.90
24011;DHT22;12217;50.792;4.372;2022-10-15T13:36:56;24.60;99.90
24011;DHT22;12217;50.792;4.372;2022-10-15T13:39:35;25.00;99.90
24011;DHT22;12217;50.792;4.372;2022-10-15T13:42:21;25.50;99.90
24011;DHT22;12217;50.792;4.372;2022-10-15T13:47:41;23.60;99.90
24011;DHT22;12217;50.792;4.372;2022-10-15T13:50:16;22.70;99.90
24011;DHT22;12217;50.792;4.372;2022-10-15T13:55:30;21.20;99.90
24011;DHT22;12217;50.792;4.372;2022-10-15T14:01:16;20.80;99.90
24011;DHT22;12217;50.792;4.372;2022-10-15T14:03:46;20.80;99.90
24011;DHT22;12217;50.792;4.372;2022-10-15T14:08:48;20.50;99.90
24011;DHT22;12217;50.792;4.372;2022-10-15T14:11:14;20.00;99.90
24011;DHT22;12217;50.792;4.372;2022-10-15T14:18:55;18.90;99.90
24011;DHT22;12217;50.792;4.372;2022-10-15T14:21:23;19.00;99.90
24011;DHT22;12217;50.792;4.372;2022-10-15T14:24:14;19.40;99.90
24011;DHT22;12217;50.792;4.372;2022-10-15T14:26:41;19.90;99.90
24011;DHT22;12217;50.792;4.372;2022-10-15T14:29:15;20.60;99.90
24011;DHT22;12217;50.792;4.372;2022-10-15T14:31:46;21.30;99.90
24011;DHT22;12217;50.792;4.372;2022-10-15T14:34:30;21.70;99.90
24011;DHT22;12217;50.792;4.372;2022-10-15T14:37:00;22.00;99.90
24011;DHT22;12217;50.792;4.372;2022-10-15T14:39:34;21.70;99.90
24011;DHT22;12217;50.792;4.372;2022-10-15T14:42:06;22.10;99.90
24011;DHT22;12217;50.792;4.372;2022-10-15T14:44:47;23.60;99.90
24011;DHT22;12217;50.792;4.372;2022-10-15T14:47:25;24.30;99.90
24011;DHT22;12217;50.792;4.372;2022-10-15T14:49:56;25.10;99.90
24011;DHT22;12217;50.792;4.372;2022-10-15T14:52:27;25.20;99.90
24011;DHT22;12217;50.792;4.372;2022-10-15T14:55:04;25.20;99.90
24011;DHT22;12217;50.792;4.372;2022-10-15T14:57:35;25.90;99.90
24011;DHT22;12217;50.792;4.372;2022-10-15T15:02:49;25.10;99.90
24011;DHT22;12217;50.792;4.372;2022-10-15T15:05:19;24.50;99.90
24011;DHT22;12217;50.792;4.372;2022-10-15T15:07:46;23.30;99.90
24011;DHT22;12217;50.792;4.372;2022-10-15T15:10:12;21.70;99.90
24011;DHT22;12217;50.792;4.372;2022-10-15T15:12:39;21.20;99.90
24011;DHT22;12217;50.792;4.372;2022-10-15T15:15:15;20.70;99.90
24011;DHT22;12217;50.792;4.372;2022-10-15T15:17:41;20.60;99.90
24011;DHT22;12217;50.792;4.372;2022-10-15T15:20:08;20.40;99.90
24011;DHT22;12217;50.792;4.372;2022-10-15T15:22:34;20.10;99.90
24011;DHT22;12217;50.792;4.372;2022-10-15T15:25:06;20.00;99.90
24011;DHT22;12217;50.792;4.372;2022-10-15T15:27:34;20.00;99.90
24011;DHT22;12217;50.792;4.372;2022-10-15T15:30:04;20.10;99.90
24011;DHT22;12217;50.792;4.372;2022-10-15T15:32:30;20.00;99.90
24011;DHT22;12217;50.792;4.372;2022-10-15T15:34:56;19.30;99.90
24011;DHT22;12217;50.792;4.372;2022-10-15T15:37:23;19.10;99.90
24011;DHT22;12217;50.792;4.372;2022-10-15T15:39:50;19.40;99.90
24011;DHT22;12217;50.792;4.372;2022-10-15T15:42:22;20.10;99.90
24011;DHT22;12217;50.792;4.372;2022-10-15T15:44:48;20.80;99.90
24011;DHT22;12217;50.792;4.372;2022-10-15T15:47:14;21.20;99.90
24011;DHT22;12217;50.792;4.372;2022-10-15T15:49:40;21.80;99.90
24011;DHT22;12217;50.792;4.372;2022-10-15T15:52:09;22.90;99.90
24011;DHT22;12217;50.792;4.372;2022-10-15T15:54:38;23.10;99.90
24011;DHT22;12217;50.792;4.372;2022-10-15T15:57:03;22.60;99.90
24011;DHT22;12217;50.792;4.372;2022-10-15T15:59:29;21.60;99.90
24011;DHT22;12217;50.792;4.372;2022-10-15T16:01:55;21.50;99.90
24011;DHT22;12217;50.792;4.372;2022-10-15T16:04:20;20.90;99.90
24011;DHT22;12217;50.792;4.372;2022-10-15T16:06:46;20.50;99.90
24011;DHT22;12217;50.792;4.372;2022-10-15T16:09:15;19.90;99.90
24011;DHT22;12217;50.792;4.372;2022-10-15T16:11:40;19.60;99.90
24011;DHT22;12217;50.792;4.372;2022-10-15T16:14:06;19.40;99.90
24011;DHT22;12217;50.792;4.372;2022-10-15T16:16:32;19.40;99.90
24011;DHT22;12217;50.792;4.372;2022-10-15T16:18:58;19.30;99.90
24011;DHT22;12217;50.792;4.372;2022-10-15T16:21:24;19.10;99.90
24011;DHT22;12217;50.792;4.372;2022-10-15T16:23:50;19.10;99.90
24011;DHT22;12217;50.792;4.372;2022-10-15T16:26:17;19.00;99.90
24011;DHT22;12217;50.792;4.372;2022-10-15T16:28:43;18.90;99.90
24011;DHT22;12217;50.792;4.372;2022-10-15T16:31:25;18.80;99.90
24011;DHT22;12217;50.792;4.372;2022-10-15T16:33:51;18.60;99.90
24011;DHT22;12217;50.792;4.372;2022-10-15T16:36:18;18.60;99.90
24011;DHT22;12217;50.792;4.372;2022-10-15T16:38:45;18.40;99.90
24011;DHT22;12217;50.792;4.372;2022-10-15T16:41:12;18.30;99.90
24011;DHT22;12217;50.792;4.372;2022-10-15T16:43:38;18.10;99.90
24011;DHT22;12217;50.792;4.372;2022-10-15T16:46:04;18.10;99.90
24011;DHT22;12217;50.792;4.372;2022-10-15T16:48:31;18.00;99.90
24011;DHT22;12217;50.792;4.372;2022-10-15T16:51:17;17.80;99.90
24011;DHT22;12217;50.792;4.372;2022-10-15T16:53:46;17.70;99.90
24011;DHT22;12217;50.792;4.372;2022-10-15T16:56:18;17.70;99.90
24011;DHT22;12217;50.792;4.372;2022-10-15T16:58:44;17.70;99.90
24011;DHT22;12217;50.792;4.372;2022-10-15T17:01:11;17.60;99.90
24011;DHT22;12217;50.792;4.372;2022-10-15T17:03:39;17.60;99.90
24011;DHT22;12217;50.792;4.372;2022-10-15T17:06:08;17.60;99.90
24011;DHT22;12217;50.792;4.372;2022-10-15T17:08:38;17.60;99.90
24011;DHT22;12217;50.792;4.372;2022-10-15T17:11:11;17.40;99.90
24011;DHT22;12217;50.792;4.372;2022-10-15T17:13:38;17.50;99.90
24011;DHT22;12217;50.792;4.372;2022-10-15T17:16:18;17.50;99.90
24011;DHT22;12217;50.792;4.372;2022-10-15T17:18:44;17.40;99.90
24011;DHT22;12217;50.792;4.372;2022-10-15T17:21:12;17.40;99.90
24011;DHT22;12217;50.792;4.372;2022-10-15T17:23:38;17.40;99.90
24011;DHT22;12217;50.792;4.372;2022-10-15T17:26:06;17.40;99.90
24011;DHT22;12217;50.792;4.372;2022-10-15T17:28:32;17.40;99.90
24011;DHT22;12217;50.792;4.372;2022-10-15T17:31:06;17.50;99.90
24011;DHT22;12217;50.792;4.372;2022-10-15T17:33:34;17.40;99.90
24011;DHT22;12217;50.792;4.372;2022-10-15T17:36:04;17.40;99.90
24011;DHT22;12217;50.792;4.372;2022-10-15T17:38:30;17.30;99.90
24011;DHT22;12217;50.792;4.372;2022-10-15T17:40:57;17.40;99.90
24011;DHT22;12217;50.792;4.372;2022-10-15T17:43:24;17.50;99.90
24011;DHT22;12217;50.792;4.372;2022-10-15T17:46:00;17.40;99.90
24011;DHT22;12217;50.792;4.372;2022-10-15T17:48:27;17.30;99.90